This is the latest recevied weather packets stored in our database for station/object IW1CBG-3. If no packets are shown the sender has not sent any weather packets the latest 1 day(s).
| Time | Temp. | Humidity | Pressure | Rain* | Wind** | Luminosity | Snow |
|---|---|---|---|---|---|---|---|
| 1778091469 | 14.44° C | 71% | 1018.1 hPa | 0 mm | - | - | - |
| 1778084870 | 16.11° C | 68% | 1016.8 hPa | 0 mm | - | - | - |
| 1778083669 | 16.67° C | 66% | 1016.5 hPa | 0 mm | - | - | - |
| 1778081270 | 16.11° C | 68% | 1016.5 hPa | 0 mm | - | - | - |
| 1778079468 | 16.11° C | 69% | 1016.8 hPa | 0 mm | - | - | - |
| 1778078869 | 16.11° C | 68% | 1016.7 hPa | 0 mm | - | - | - |
| 1778076469 | 17.22° C | 66% | 1016.5 hPa | 0 mm | - | - | - |
| 1778072868 | 17.22° C | 64% | 1016.9 hPa | 0 mm | - | - | - |
| 1778070469 | 17.22° C | 62% | 1016.5 hPa | 0 mm | - | - | - |
| 1778069869 | 16.67° C | 63% | 1016.4 hPa | 0 mm | - | - | - |
| 1778069269 | 17.22° C | 64% | 1016.3 hPa | 0 mm | - | - | - |
| 1778066270 | 16.67° C | 63% | 1016.4 hPa | 0 mm | - | - | - |
| 1778064470 | 16.67° C | 64% | 1016.8 hPa | 0 mm | - | - | - |
| 1778063869 | 16.11° C | 65% | 1017.2 hPa | 0 mm | - | - | - |
| 1778063269 | 15.56° C | 70% | 1017.5 hPa | 0 mm | - | - | - |
| 1778062669 | 15.56° C | 70% | 1017.5 hPa | 0 mm | - | - | - |
| 1778061468 | 15.56° C | 69% | 1017.6 hPa | 0 mm | - | - | - |
| 1778060869 | 15.56° C | 74% | 1017.4 hPa | 0 mm | - | - | - |
| 1778060269 | 15° C | 72% | 1017.7 hPa | 0 mm | - | - | - |
| 1778058470 | 13.89° C | 79% | 1018 hPa | 0 mm | - | - | - |
| 1778057869 | 13.89° C | 79% | 1017.9 hPa | 0 mm | - | - | - |
| 1778056668 | 13.89° C | 78% | 1018.2 hPa | 0 mm | - | - | - |
| 1778056068 | 14.44° C | 76% | 1017.7 hPa | 0 mm | - | - | - |
| 1778054869 | 13.89° C | 77% | 1017.9 hPa | 0 mm | - | - | - |
| 1778054269 | 13.89° C | 75% | 1017.7 hPa | 0 mm | - | - | - |
* Rain latest hour (hover to see other rain measurements)
** Current wind speed in m/s (hover to see current wind gust speed)